createdAt,value
2019-04-13T00:01:14.885Z,2.20
2019-04-13T00:03:43.312Z,2.10
2019-04-13T00:06:13.393Z,2.10
2019-04-13T00:08:41.901Z,2.10
2019-04-13T00:11:14.924Z,2.10
2019-04-13T00:13:43.365Z,2.10
2019-04-13T00:16:12.056Z,2.10
2019-04-13T00:18:40.489Z,2.10
2019-04-13T00:21:08.951Z,2.10
2019-04-13T00:23:37.376Z,2.10
2019-04-13T00:26:05.801Z,2.10
2019-04-13T00:28:34.270Z,2.20
2019-04-13T00:31:02.704Z,2.20
2019-04-13T00:33:31.135Z,2.20
2019-04-13T00:35:59.830Z,2.30
2019-04-13T00:38:28.313Z,2.20
2019-04-13T00:40:56.743Z,2.30
2019-04-13T00:43:25.195Z,2.30
2019-04-13T00:45:53.625Z,2.20
2019-04-13T00:48:22.043Z,2.10
2019-04-13T00:50:50.485Z,2.10
2019-04-13T00:53:18.910Z,2.10
2019-04-13T00:55:47.340Z,1.90
2019-04-13T00:58:16.033Z,2.00
2019-04-13T01:00:44.709Z,2.00
2019-04-13T01:03:13.137Z,1.90
2019-04-13T01:05:41.581Z,2.00
2019-04-13T01:08:10.000Z,2.00
2019-04-13T01:10:38.420Z,2.00
2019-04-13T01:13:06.865Z,1.90
2019-04-13T01:15:35.280Z,2.00
2019-04-13T01:18:03.773Z,2.00
2019-04-13T01:20:32.214Z,2.00
2019-04-13T01:23:00.658Z,2.00
2019-04-13T01:25:29.124Z,2.00
2019-04-13T01:27:57.566Z,2.00
2019-04-13T01:30:25.988Z,2.10
2019-04-13T01:32:54.411Z,2.20
2019-04-13T01:35:22.843Z,2.20
2019-04-13T01:37:51.265Z,2.20
2019-04-13T01:40:19.680Z,2.20
2019-04-13T01:42:48.124Z,2.20
2019-04-13T01:45:16.800Z,2.20
2019-04-13T01:47:45.217Z,2.30
2019-04-13T01:50:13.721Z,2.30
2019-04-13T01:52:42.145Z,2.30
2019-04-13T01:55:10.636Z,2.40
2019-04-13T01:57:39.080Z,2.40
2019-04-13T02:00:08.721Z,2.30
2019-04-13T02:02:38.770Z,2.40
2019-04-13T02:05:27.025Z,2.40
2019-04-13T02:08:08.910Z,2.50
2019-04-13T02:10:38.989Z,2.50
2019-04-13T02:13:07.410Z,2.50
2019-04-13T02:15:36.096Z,2.50
2019-04-13T02:18:04.702Z,2.50
2019-04-13T02:20:33.125Z,2.50
2019-04-13T02:23:01.544Z,2.60
2019-04-13T02:25:30.002Z,2.60
2019-04-13T02:27:58.423Z,2.60
2019-04-13T02:30:26.845Z,2.60
2019-04-13T02:32:55.307Z,2.70
2019-04-13T02:35:35.157Z,2.80
2019-04-13T02:37:53.859Z,2.70
2019-04-13T02:40:22.298Z,2.80
2019-04-13T02:42:50.967Z,2.90
2019-04-13T02:45:19.377Z,2.90
2019-04-13T02:47:47.809Z,2.80
2019-04-13T02:50:16.371Z,2.90
2019-04-13T02:52:44.885Z,3.00
2019-04-13T02:55:13.400Z,2.90
2019-04-13T02:57:41.838Z,2.80
2019-04-13T03:00:12.048Z,2.80
2019-04-13T03:02:40.714Z,2.90
2019-04-13T03:05:10.825Z,2.80
2019-04-13T03:07:39.242Z,2.80
2019-04-13T03:10:07.940Z,2.90
2019-04-13T03:12:36.678Z,2.90
2019-04-13T03:15:07.852Z,2.80
2019-04-13T03:17:44.240Z,2.80
2019-04-13T03:20:14.765Z,2.80
2019-04-13T03:22:43.433Z,3.00
2019-04-13T03:25:11.884Z,3.00
2019-04-13T03:27:40.313Z,3.10
2019-04-13T03:30:09.937Z,3.10
2019-04-13T03:32:38.381Z,3.00
2019-04-13T03:35:07.232Z,3.00
2019-04-13T03:37:35.660Z,3.00
2019-04-13T03:40:05.139Z,2.90
2019-04-13T03:42:33.808Z,2.90
2019-04-13T03:45:02.477Z,2.80
2019-04-13T03:47:30.917Z,2.90
2019-04-13T03:49:59.344Z,2.90
2019-04-13T03:52:27.765Z,3.00
2019-04-13T03:54:56.200Z,3.10
2019-04-13T03:57:24.692Z,3.10
2019-04-13T03:59:53.113Z,3.10
2019-04-13T04:02:21.697Z,3.00
2019-04-13T04:04:50.388Z,3.00
2019-04-13T04:07:18.817Z,3.00
2019-04-13T04:09:47.244Z,2.90
2019-04-13T04:12:15.919Z,2.80
2019-04-13T04:14:44.349Z,2.80
2019-04-13T04:17:12.773Z,2.90
2019-04-13T04:19:41.202Z,2.90
2019-04-13T04:22:09.617Z,2.90
2019-04-13T04:24:38.047Z,2.90
2019-04-13T04:27:06.468Z,3.00
2019-04-13T04:29:34.876Z,3.00
2019-04-13T04:32:03.320Z,3.00
2019-04-13T04:34:31.737Z,3.00
2019-04-13T04:37:00.158Z,3.10
2019-04-13T04:39:28.617Z,3.20
2019-04-13T04:41:57.026Z,3.20
2019-04-13T04:44:25.448Z,3.10
2019-04-13T04:46:53.887Z,3.10
2019-04-13T04:49:22.305Z,3.10
2019-04-13T04:51:50.726Z,3.10
2019-04-13T04:54:19.158Z,3.10
2019-04-13T04:56:47.585Z,3.20
2019-04-13T04:59:16.007Z,3.10
2019-04-13T05:01:44.522Z,3.10
2019-04-13T05:04:12.940Z,3.20
2019-04-13T05:06:41.361Z,3.20
2019-04-13T05:09:09.800Z,3.10
2019-04-13T05:11:38.304Z,3.10
2019-04-13T05:14:06.730Z,3.20
2019-04-13T05:16:35.157Z,3.20
2019-04-13T05:19:03.590Z,3.20
2019-04-13T05:21:32.013Z,3.40
2019-04-13T05:24:00.468Z,3.30
2019-04-13T05:26:28.896Z,3.30
2019-04-13T05:28:57.325Z,3.20
2019-04-13T05:31:25.766Z,3.30
2019-04-13T05:33:54.186Z,3.30
2019-04-13T05:36:22.616Z,3.20
2019-04-13T05:38:51.049Z,3.20
2019-04-13T05:41:19.473Z,3.30
2019-04-13T05:43:47.897Z,3.20
2019-04-13T05:46:16.321Z,3.20
2019-04-13T05:48:44.741Z,3.20
2019-04-13T05:51:13.156Z,3.20
2019-04-13T05:53:41.585Z,3.20
2019-04-13T05:56:10.009Z,3.30
2019-04-13T05:58:38.430Z,3.30
2019-04-13T06:01:06.858Z,3.40
2019-04-13T06:03:35.281Z,3.30
2019-04-13T06:06:03.692Z,3.30
2019-04-13T06:08:35.775Z,3.40
2019-04-13T06:11:03.360Z,3.40
2019-04-13T06:13:31.881Z,3.50
2019-04-13T06:16:04.509Z,3.60
2019-04-13T06:18:30.634Z,3.60
2019-04-13T06:20:59.131Z,3.50
2019-04-13T06:23:27.580Z,3.50
2019-04-13T06:25:56.005Z,3.50
2019-04-13T06:28:24.429Z,3.60
2019-04-13T06:30:54.523Z,3.70
2019-04-13T06:33:24.569Z,3.50
2019-04-13T06:35:52.988Z,3.60
2019-04-13T06:38:21.902Z,3.60
2019-04-13T06:40:51.608Z,3.60
2019-04-13T06:43:20.121Z,3.50
2019-04-13T06:45:49.127Z,3.60
2019-04-13T06:48:17.575Z,3.70
2019-04-13T06:50:46.060Z,3.80
2019-04-13T06:53:14.492Z,3.90
2019-04-13T06:55:43.181Z,4.00
2019-04-13T06:58:13.273Z,4.10
2019-04-13T07:00:44.866Z,4.20
2019-04-13T07:03:13.351Z,4.30
2019-04-13T07:05:41.786Z,4.40
2019-04-13T07:08:14.629Z,4.50
2019-04-13T07:10:49.803Z,4.40
2019-04-13T07:13:28.234Z,4.40
2019-04-13T07:16:16.125Z,4.40
2019-04-13T07:18:44.564Z,4.40
2019-04-13T07:21:12.986Z,4.40
2019-04-13T07:23:41.457Z,4.40
2019-04-13T07:26:11.244Z,4.40
2019-04-13T07:28:39.832Z,4.40
2019-04-13T07:31:08.258Z,4.40
2019-04-13T07:33:36.957Z,4.40
2019-04-13T07:36:05.376Z,4.40
2019-04-13T07:38:33.805Z,4.50
2019-04-13T07:41:02.246Z,4.50
2019-04-13T07:43:30.682Z,4.40
2019-04-13T07:46:00.805Z,4.40
2019-04-13T07:48:45.928Z,4.40
2019-04-13T07:51:15.990Z,4.40
2019-04-13T07:53:44.417Z,4.50
2019-04-13T07:56:12.872Z,4.60
2019-04-13T07:58:41.296Z,4.60
2019-04-13T08:01:10.666Z,4.50
2019-04-13T08:03:39.102Z,4.60
2019-04-13T08:06:07.782Z,4.60
2019-04-13T08:08:40.224Z,4.60
2019-04-13T08:11:07.340Z,4.70
2019-04-13T08:13:35.837Z,4.60
2019-04-13T08:16:06.233Z,4.70
2019-04-13T08:18:45.363Z,4.70
2019-04-13T08:21:13.786Z,4.80
2019-04-13T08:23:43.853Z,4.90
2019-04-13T08:26:12.293Z,4.90
2019-04-13T08:28:40.720Z,5.10
2019-04-13T08:31:09.162Z,5.30
2019-04-13T08:33:37.673Z,5.50
2019-04-13T08:36:06.101Z,5.60
2019-04-13T08:38:34.536Z,5.70
2019-04-13T08:41:10.988Z,5.70
2019-04-13T08:43:33.392Z,5.80
2019-04-13T08:46:01.857Z,5.70
2019-04-13T08:48:30.347Z,5.60
2019-04-13T08:50:58.764Z,5.70
2019-04-13T08:53:27.197Z,5.90
2019-04-13T08:55:55.643Z,6.00
2019-04-13T08:58:24.057Z,6.00
2019-04-13T09:00:52.479Z,6.00
2019-04-13T09:03:21.169Z,5.80
2019-04-13T09:05:49.597Z,5.70
2019-04-13T09:08:28.696Z,5.70
2019-04-13T09:10:49.268Z,5.80
2019-04-13T09:13:17.795Z,5.90
2019-04-13T09:15:48.313Z,6.00
2019-04-13T09:18:34.584Z,6.20
2019-04-13T09:21:07.381Z,6.40
2019-04-13T09:23:36.718Z,6.50
2019-04-13T09:26:05.048Z,6.40
2019-04-13T09:28:33.465Z,6.50
2019-04-13T09:31:01.948Z,6.80
2019-04-13T09:33:32.488Z,7.00
2019-04-13T09:36:00.827Z,7.10
2019-04-13T09:38:41.343Z,6.90
2019-04-13T09:41:02.982Z,6.70
2019-04-13T09:43:36.681Z,6.60
2019-04-13T09:46:06.441Z,6.70
2019-04-13T09:48:35.536Z,6.70
2019-04-13T09:51:04.042Z,6.60
2019-04-13T09:53:32.476Z,6.80
2019-04-13T09:56:02.604Z,6.80
2019-04-13T09:58:35.036Z,6.90
2019-04-13T10:01:01.665Z,6.90
2019-04-13T10:03:30.197Z,7.00
2019-04-13T10:05:58.639Z,7.00
2019-04-13T10:08:27.077Z,7.10
2019-04-13T10:10:55.505Z,7.20
2019-04-13T10:13:28.603Z,7.30
2019-04-13T10:16:07.525Z,7.50
2019-04-13T10:18:46.422Z,7.70
2019-04-13T10:21:14.865Z,7.60
2019-04-13T10:23:43.285Z,7.60
2019-04-13T10:26:15.806Z,7.40
2019-04-13T10:28:42.362Z,7.60
2019-04-13T10:31:11.037Z,7.70
2019-04-13T10:33:39.456Z,7.80
2019-04-13T10:36:07.901Z,7.60
2019-04-13T10:38:36.331Z,7.50
2019-04-13T10:41:06.929Z,7.40
2019-04-13T10:43:35.155Z,7.40
2019-04-13T10:46:05.213Z,7.60
2019-04-13T10:48:44.146Z,7.80
2019-04-13T10:51:23.159Z,8.00
2019-04-13T10:53:51.604Z,8.10
2019-04-13T10:56:20.021Z,7.80
2019-04-13T10:58:48.907Z,7.90
2019-04-13T11:01:17.467Z,8.00
2019-04-13T11:03:45.948Z,7.90
2019-04-13T11:06:14.368Z,7.90
2019-04-13T11:08:43.726Z,7.90
2019-04-13T11:11:12.162Z,7.90
2019-04-13T11:13:40.599Z,8.00
2019-04-13T11:16:09.135Z,8.10
2019-04-13T11:18:37.622Z,8.30
2019-04-13T11:21:06.101Z,8.10
2019-04-13T11:23:36.455Z,8.10
2019-04-13T11:26:05.449Z,8.10
2019-04-13T11:28:33.911Z,8.00
2019-04-13T11:31:02.370Z,7.80
2019-04-13T11:33:30.826Z,7.80
2019-04-13T11:35:59.263Z,7.80
2019-04-13T11:38:27.726Z,8.10
2019-04-13T11:41:06.311Z,8.30
2019-04-13T11:43:52.919Z,8.50
2019-04-13T11:46:29.445Z,8.70
2019-04-13T11:49:05.919Z,8.70
2019-04-13T11:51:34.402Z,8.80
2019-04-13T11:54:04.221Z,9.00
2019-04-13T11:56:36.770Z,8.80
2019-04-13T11:59:03.602Z,8.60
2019-04-13T12:01:33.946Z,8.20
2019-04-13T12:04:04.071Z,8.10
2019-04-13T12:06:50.131Z,7.90
2019-04-13T12:09:20.255Z,7.70
2019-04-13T12:11:56.062Z,7.90
2019-04-13T12:14:32.004Z,7.90
2019-04-13T12:17:06.480Z,6.10
2019-04-13T12:19:42.827Z,7.90
2019-04-13T12:22:13.047Z,8.00
2019-04-13T12:24:41.591Z,8.20
2019-04-13T12:27:10.110Z,8.20
2019-04-13T12:29:39.357Z,7.80
2019-04-13T12:32:10.102Z,7.60
2019-04-13T12:34:38.557Z,7.50
2019-04-13T12:37:09.210Z,7.20
2019-04-13T12:39:40.264Z,7.20
2019-04-13T12:42:07.336Z,7.00
2019-04-13T12:44:38.126Z,7.10
2019-04-13T12:47:09.910Z,7.20
2019-04-13T12:49:37.861Z,7.40
2019-04-13T12:52:06.351Z,7.60
2019-04-13T12:54:37.260Z,7.80
2019-04-13T12:57:04.950Z,7.90
2019-04-13T12:59:36.165Z,7.90
2019-04-13T13:02:08.247Z,7.80
2019-04-13T13:04:46.864Z,8.00
2019-04-13T13:07:15.304Z,8.10
2019-04-13T13:09:43.790Z,8.30
2019-04-13T13:12:14.458Z,8.40
2019-04-13T13:14:42.674Z,8.50
2019-04-13T13:17:11.117Z,8.40
2019-04-13T13:19:42.206Z,8.50
2019-04-13T13:22:10.042Z,8.60
2019-04-13T13:24:38.750Z,8.80
2019-04-13T13:27:09.045Z,9.00
2019-04-13T13:29:37.548Z,9.30
2019-04-13T13:32:05.976Z,9.50
2019-04-13T13:34:34.469Z,9.50
2019-04-13T13:37:04.928Z,9.50
2019-04-13T13:39:33.299Z,9.30
2019-04-13T13:42:01.773Z,9.40
2019-04-13T13:44:30.190Z,9.30
2019-04-13T13:46:58.625Z,9.30
2019-04-13T13:49:27.082Z,9.20
2019-04-13T13:51:56.451Z,9.10
2019-04-13T13:54:26.535Z,9.00
2019-04-13T13:56:54.961Z,8.90
2019-04-13T13:59:23.698Z,8.80
2019-04-13T14:01:53.760Z,8.80
2019-04-13T14:04:22.262Z,8.60
2019-04-13T14:06:50.706Z,8.60
2019-04-13T14:09:19.141Z,8.70
2019-04-13T14:11:47.681Z,8.80
2019-04-13T14:14:16.113Z,8.60
2019-04-13T14:16:45.136Z,8.50
2019-04-13T14:19:14.769Z,8.30
2019-04-13T14:21:43.279Z,8.10
2019-04-13T14:24:11.748Z,8.10
2019-04-13T14:26:40.225Z,8.10
2019-04-13T14:29:10.704Z,7.90
2019-04-13T14:31:38.832Z,7.70
2019-04-13T14:34:07.464Z,7.60
2019-04-13T14:36:38.838Z,7.60
2019-04-13T14:39:07.594Z,7.40
2019-04-13T14:41:36.051Z,7.40
2019-04-13T14:44:04.540Z,7.40
2019-04-13T14:46:32.974Z,7.40
2019-04-13T14:49:01.409Z,7.30
2019-04-13T14:51:29.870Z,7.30
2019-04-13T14:53:58.288Z,7.30
2019-04-13T14:56:26.764Z,7.40
2019-04-13T14:58:55.208Z,7.40
2019-04-13T15:01:23.629Z,7.40
2019-04-13T15:03:52.471Z,7.50
2019-04-13T15:06:24.886Z,7.50
2019-04-13T15:08:51.104Z,7.50
2019-04-13T15:11:19.552Z,7.50
2019-04-13T15:13:49.355Z,7.60
2019-04-13T15:16:20.469Z,7.60
2019-04-13T15:18:52.703Z,7.70
2019-04-13T15:21:23.092Z,7.70
2019-04-13T15:23:51.459Z,7.80
2019-04-13T15:26:24.058Z,8.00
2019-04-13T15:28:53.772Z,7.90
2019-04-13T15:31:22.943Z,7.90
2019-04-13T15:33:54.867Z,8.00
2019-04-13T15:36:25.120Z,8.10
2019-04-13T15:38:52.387Z,8.20
2019-04-13T15:41:30.881Z,8.20
2019-04-13T15:43:52.464Z,8.10
2019-04-13T15:46:26.136Z,8.00
2019-04-13T15:48:58.375Z,8.10
2019-04-13T15:51:27.976Z,8.10
2019-04-13T15:53:57.396Z,8.10
2019-04-13T15:56:25.859Z,8.10
2019-04-13T15:58:55.329Z,8.30
2019-04-13T16:01:23.940Z,8.90
2019-04-13T16:03:53.147Z,9.70
2019-04-13T16:06:21.619Z,10.40
2019-04-13T16:08:51.693Z,10.50
2019-04-13T16:11:48.150Z,10.50
2019-04-13T16:14:11.460Z,9.90
2019-04-13T16:16:40.054Z,9.10
2019-04-13T16:19:09.332Z,8.30
2019-04-13T16:21:38.710Z,8.00
2019-04-13T16:24:07.321Z,7.60
2019-04-13T16:26:35.778Z,7.60
2019-04-13T16:29:05.922Z,7.50
2019-04-13T16:31:48.584Z,7.40
2019-04-13T16:34:28.053Z,7.20
2019-04-13T16:36:58.410Z,7.10
2019-04-13T16:39:28.380Z,7.20
2019-04-13T16:42:04.668Z,7.30
2019-04-13T16:44:28.931Z,7.20
2019-04-13T16:46:59.385Z,7.10
2019-04-13T16:49:31.445Z,7.10
2019-04-13T16:52:17.980Z,6.80
2019-04-13T16:54:56.955Z,6.70
2019-04-13T16:57:32.004Z,6.70
2019-04-13T17:00:18.701Z,6.60
2019-04-13T17:02:54.943Z,6.70
2019-04-13T17:05:25.015Z,6.70
2019-04-13T17:07:54.695Z,6.80
2019-04-13T17:10:25.526Z,6.80
2019-04-13T17:12:54.003Z,6.80
2019-04-13T17:15:23.347Z,7.00
2019-04-13T17:17:51.871Z,7.10
2019-04-13T17:20:28.400Z,7.00
2019-04-13T17:23:14.965Z,6.90
2019-04-13T17:26:02.217Z,7.00
2019-04-13T17:28:54.476Z,7.20
2019-04-13T17:31:28.418Z,7.40
2019-04-13T17:34:14.895Z,7.30
2019-04-13T17:36:44.973Z,7.10
2019-04-13T17:39:13.464Z,7.10
2019-04-13T17:41:44.720Z,7.20
2019-04-13T17:44:14.881Z,7.10
2019-04-13T17:46:47.627Z,7.10
2019-04-13T17:49:34.221Z,7.00
2019-04-13T17:52:21.196Z,6.90
2019-04-13T17:54:52.559Z,6.90
2019-04-13T17:57:28.595Z,6.90
2019-04-13T18:00:01.839Z,6.90
2019-04-13T18:02:32.208Z,6.80
2019-04-13T18:05:14.210Z,6.70
2019-04-13T18:07:53.038Z,6.50
2019-04-13T18:10:25.084Z,6.40
2019-04-13T18:13:00.885Z,6.20
2019-04-13T18:15:30.557Z,6.10
2019-04-13T18:18:01.755Z,6.00
2019-04-13T18:20:30.590Z,6.00
2019-04-13T18:23:00.256Z,6.00
2019-04-13T18:25:35.477Z,6.00
2019-04-13T18:27:59.920Z,5.90
2019-04-13T18:30:33.472Z,5.80
2019-04-13T18:32:58.666Z,5.90
2019-04-13T18:35:27.643Z,5.80
2019-04-13T18:37:56.146Z,5.80
2019-04-13T18:40:24.577Z,5.70
2019-04-13T18:43:04.889Z,5.70
2019-04-13T18:45:24.449Z,5.70
2019-04-13T18:47:53.528Z,5.70
2019-04-13T18:50:22.440Z,5.70
2019-04-13T18:52:51.030Z,5.80
2019-04-13T18:55:20.128Z,5.70
2019-04-13T18:57:48.992Z,5.60
2019-04-13T19:00:17.673Z,5.60
2019-04-13T19:02:46.118Z,5.50
2019-04-13T19:05:14.566Z,5.50
2019-04-13T19:07:43.142Z,5.40
2019-04-13T19:10:11.586Z,5.40
2019-04-13T19:12:40.029Z,5.50
2019-04-13T19:15:08.951Z,5.40
2019-04-13T19:17:37.423Z,5.30
2019-04-13T19:20:07.290Z,5.30
2019-04-13T19:22:36.700Z,5.30
2019-04-13T19:25:06.476Z,5.40
2019-04-13T19:27:35.224Z,5.30
2019-04-13T19:30:05.829Z,5.30
2019-04-13T19:32:34.348Z,5.20
2019-04-13T19:35:02.836Z,5.30
2019-04-13T19:37:31.288Z,5.30
2019-04-13T19:39:59.708Z,5.20
2019-04-13T19:42:28.147Z,5.30
2019-04-13T19:44:56.615Z,5.30
2019-04-13T19:47:25.036Z,5.30
2019-04-13T19:49:53.472Z,5.30
2019-04-13T19:52:23.557Z,5.40
2019-04-13T19:54:51.981Z,5.40
2019-04-13T19:57:20.401Z,5.40
2019-04-13T19:59:48.898Z,5.40
2019-04-13T20:02:18.505Z,5.30
2019-04-13T20:04:46.936Z,5.40
2019-04-13T20:07:15.479Z,5.50
2019-04-13T20:09:44.197Z,5.00
2019-04-13T20:12:12.629Z,5.40
2019-04-13T20:14:41.625Z,5.30
2019-04-13T20:17:10.153Z,5.30
2019-04-13T20:19:38.572Z,5.30
2019-04-13T20:22:07.052Z,5.30
2019-04-13T20:24:35.501Z,5.20
2019-04-13T20:27:04.446Z,5.20
2019-04-13T20:29:33.868Z,5.20
2019-04-13T20:32:03.423Z,5.10
2019-04-13T20:34:31.984Z,5.10
2019-04-13T20:37:01.338Z,5.10
2019-04-13T20:39:31.482Z,5.20
2019-04-13T20:42:05.792Z,5.20
2019-04-13T20:44:30.389Z,5.10
2019-04-13T20:46:58.824Z,5.20
2019-04-13T20:49:28.107Z,5.00
2019-04-13T20:51:56.689Z,5.00
2019-04-13T20:54:25.132Z,4.90
2019-04-13T20:56:53.548Z,4.70
2019-04-13T20:59:21.992Z,4.70
2019-04-13T21:01:51.641Z,4.60
2019-04-13T21:04:20.125Z,4.60
2019-04-13T21:06:49.902Z,4.60
2019-04-13T21:09:18.473Z,4.60
2019-04-13T21:11:48.421Z,5.30
2019-04-13T21:14:26.859Z,4.60
2019-04-13T21:16:47.424Z,4.60
2019-04-13T21:19:15.928Z,4.60
2019-04-13T21:21:45.452Z,4.60
2019-04-13T21:24:14.029Z,4.50
2019-04-13T21:26:43.402Z,4.40
2019-04-13T21:29:13.070Z,4.50
2019-04-13T21:31:41.601Z,4.30
2019-04-13T21:34:11.403Z,4.30
2019-04-13T21:36:41.313Z,4.30
2019-04-13T21:39:11.430Z,4.30
2019-04-13T21:41:41.277Z,4.30
2019-04-13T21:44:19.869Z,4.30
2019-04-13T21:46:41.423Z,4.30
2019-04-13T21:49:10.055Z,4.20
2019-04-13T21:51:49.197Z,4.20
2019-04-13T21:54:19.534Z,4.20
2019-04-13T21:56:48.003Z,4.20
2019-04-13T21:59:17.222Z,4.10
2019-04-13T22:01:56.288Z,4.20
2019-04-13T22:04:24.789Z,4.20
2019-04-13T22:06:53.950Z,4.20
2019-04-13T22:09:22.436Z,4.20
2019-04-13T22:11:51.556Z,4.20
2019-04-13T22:14:29.481Z,4.10
2019-04-13T22:16:50.164Z,4.10
2019-04-13T22:19:18.631Z,4.10
2019-04-13T22:21:47.936Z,4.10
2019-04-13T22:24:16.400Z,4.20
2019-04-13T22:26:45.674Z,4.10
2019-04-13T22:29:31.869Z,4.00
2019-04-13T22:32:18.749Z,4.00
2019-04-13T22:34:56.747Z,3.90
2019-04-13T22:37:25.589Z,3.90
2019-04-13T22:39:55.320Z,3.90
2019-04-13T22:42:25.132Z,3.90
2019-04-13T22:45:02.054Z,3.90
2019-04-13T22:47:23.957Z,4.00
2019-04-13T22:50:06.936Z,4.00
2019-04-13T22:52:39.557Z,4.10
2019-04-13T22:55:10.161Z,4.00
2019-04-13T22:57:41.410Z,4.00
2019-04-13T23:00:12.683Z,4.00
2019-04-13T23:02:45.824Z,3.90
2019-04-13T23:05:15.449Z,5.10
2019-04-13T23:07:44.024Z,3.90
2019-04-13T23:10:13.595Z,3.90
2019-04-13T23:12:42.166Z,3.90
2019-04-13T23:15:19.148Z,3.80
2019-04-13T23:17:41.900Z,3.90
2019-04-13T23:20:12.495Z,3.90
2019-04-13T23:22:41.049Z,3.90
2019-04-13T23:25:09.793Z,3.90
2019-04-13T23:27:39.367Z,3.80
2019-04-13T23:30:09.526Z,3.80
2019-04-13T23:32:38.024Z,3.80
2019-04-13T23:35:08.387Z,3.70
2019-04-13T23:37:36.884Z,3.60
2019-04-13T23:40:07.191Z,3.70
2019-04-13T23:42:37.249Z,3.60
2019-04-13T23:45:17.130Z,3.60
2019-04-13T23:47:38.322Z,3.60
2019-04-13T23:50:08.846Z,3.70
2019-04-13T23:52:37.456Z,3.60
2019-04-13T23:55:07.703Z,3.60
2019-04-13T23:57:55.474Z,3.60
